Time;durP1;ratioP1;P1;durP2;ratioP2;P2;SDS_P1;SDS_P2;PMS_P1;PMS_P2;Temp;Humidity;BMP_temperature;BMP_pressure;BME280_temperature;BME280_humidity;BME280_pressure;Samples;Min_cycle;Max_cycle;Signal;HPM_P1;HPM_P2
2022/04/17 00:02:02;;;;;;;7.18;5.80;;;;;;;14.14;48.18;99312.31;5038263;28;20025;-88
2022/04/17 00:04:28;;;;;;;7.20;5.20;;;;;;;14.13;48.40;99318.03;5021972;28;20410;-89
2022/04/17 00:06:54;;;;;;;9.90;5.78;;;;;;;14.02;49.05;99327.41;5038608;28;20147;-89
2022/04/17 00:09:20;;;;;;;6.65;5.43;;;;;;;14.09;49.13;99323.25;5021926;28;20077;-89
2022/04/17 00:11:47;;;;;;;7.30;5.90;;;;;;;14.13;49.36;99334.25;5037271;28;20047;-88
2022/04/17 00:14:13;;;;;;;8.85;5.90;;;;;;;14.09;49.54;99336.78;5022809;28;20025;-91
2022/04/17 00:16:40;;;;;;;8.45;6.35;;;;;;;13.92;49.95;99341.88;5005983;28;20051;-90
2022/04/17 00:19:09;;;;;;;9.30;6.30;;;;;;;13.92;50.02;99347.28;5005987;28;20020;-91
2022/04/17 00:21:35;;;;;;;7.45;6.13;;;;;;;13.80;50.57;99355.84;5036539;28;20051;-92
2022/04/17 00:24:00;;;;;;;7.88;6.18;;;;;;;13.90;50.47;99366.53;5006384;28;20021;-89
2022/04/17 00:26:28;;;;;;;7.30;6.60;;;;;;;13.90;50.72;99361.13;5021893;28;20025;-89
2022/04/17 00:28:57;;;;;;;7.90;6.60;;;;;;;13.94;50.70;99373.00;5005336;28;20403;-88
2022/04/17 00:31:24;;;;;;;8.65;6.90;;;;;;;13.88;50.88;99357.91;5054620;28;20021;-87
2022/04/17 00:33:50;;;;;;;13.00;6.30;;;;;;;13.75;51.10;99315.31;5020670;28;20024;-91
2022/04/17 00:36:15;;;;;;;8.77;6.35;;;;;;;13.85;51.01;99323.28;5005169;28;20031;-89
2022/04/17 00:38:41;;;;;;;7.90;6.28;;;;;;;13.81;51.28;99324.16;5004016;28;20029;-89
2022/04/17 00:41:07;;;;;;;9.15;6.53;;;;;;;13.58;52.06;99326.63;5021126;28;20529;-86
2022/04/17 00:43:33;;;;;;;9.23;6.72;;;;;;;13.54;52.34;99331.78;5004664;28;20238;-88
2022/04/17 00:45:59;;;;;;;12.32;6.88;;;;;;;13.51;52.58;99329.69;5021651;28;20033;-88
2022/04/17 00:48:25;;;;;;;8.63;6.70;;;;;;;13.47;52.98;99333.25;5021199;28;20082;-88
2022/04/17 00:50:51;;;;;;;10.30;6.75;;;;;;;13.48;53.09;99334.84;5037733;28;20111;-88
2022/04/17 00:53:18;;;;;;;8.32;7.15;;;;;;;13.43;53.15;99333.00;5054900;28;20371;-88
2022/04/17 00:55:44;;;;;;;10.35;7.10;;;;;;;13.42;53.56;99331.38;5038422;28;20025;-88
2022/04/17 00:58:10;;;;;;;7.68;6.80;;;;;;;13.37;53.85;99325.25;5004761;28;20025;-90
2022/04/17 01:00:36;;;;;;;10.60;7.22;;;;;;;13.31;53.97;99322.59;5020805;28;20025;-89
2022/04/17 01:03:03;;;;;;;11.05;7.47;;;;;;;13.31;54.26;99321.78;5036604;28;20368;-88
2022/04/17 01:05:29;;;;;;;10.65;7.20;;;;;;;13.21;54.67;99317.25;5021288;28;20025;-89
2022/04/17 01:07:55;;;;;;;9.27;6.57;;;;;;;13.26;54.40;99314.53;5037731;28;20135;-90
2022/04/17 01:10:22;;;;;;;11.55;8.07;;;;;;;13.19;54.57;99308.63;5037479;28;20096;-88
2022/04/17 01:12:48;;;;;;;12.27;7.72;;;;;;;13.11;55.02;99293.03;5019339;28;20033;-89
2022/04/17 01:15:15;;;;;;;11.25;8.23;;;;;;;13.01;55.84;99307.50;5037553;28;20391;-89
2022/04/17 01:17:41;;;;;;;9.43;7.53;;;;;;;12.98;55.98;99301.84;5004794;28;20025;-88
2022/04/17 01:20:08;;;;;;;8.93;7.95;;;;;;;12.93;56.62;99310.81;5036987;28;20039;-89
2022/04/17 01:22:34;;;;;;;8.85;7.80;;;;;;;12.89;56.83;99309.78;5037093;28;20021;-88
2022/04/17 01:27:44;;;;;;;8.95;7.68;;;;;;;12.78;57.20;99292.81;5025562;28;20580;-88
2022/04/17 01:30:10;;;;;;;12.13;7.57;;;;;;;12.76;57.49;99308.53;5020949;28;20124;-89
2022/04/17 01:32:35;;;;;;;9.27;7.63;;;;;;;12.69;57.84;99302.66;5024471;28;20032;-89
2022/04/17 01:35:02;;;;;;;15.05;8.23;;;;;;;12.66;58.18;99298.63;5025021;28;20028;-88
2022/04/17 01:37:28;;;;;;;9.50;7.90;;;;;;;12.57;58.65;99308.41;5040286;28;20506;-88
2022/04/17 01:39:56;;;;;;;10.27;7.72;;;;;;;12.62;57.90;99311.09;5042129;28;20037;-91
2022/04/17 01:42:22;;;;;;;11.15;7.40;;;;;;;12.69;57.86;99326.97;5026151;28;20025;-91
2022/04/17 01:44:51;;;;;;;10.40;7.47;;;;;;;12.57;58.32;99316.53;5058166;28;20078;-91
2022/04/17 01:47:18;;;;;;;8.52;6.50;;;;;;;12.56;59.14;99314.94;5025011;28;20031;-91
2022/04/17 01:49:43;;;;;;;11.88;7.20;;;;;;;12.64;59.24;99327.81;5025095;28;20021;-91
2022/04/17 01:52:10;;;;;;;9.02;6.70;;;;;;;12.57;59.31;99297.63;5024902;28;20445;-91
2022/04/17 01:54:35;;;;;;;11.10;6.60;;;;;;;12.63;59.63;99307.28;5007787;28;20041;-91
2022/04/17 01:57:02;;;;;;;8.65;5.78;;;;;;;12.73;59.63;99318.00;5024260;28;20441;-91
2022/04/17 01:59:28;;;;;;;11.77;6.97;;;;;;;12.60;60.02;99298.97;5041095;28;20053;-91
2022/04/17 02:01:56;;;;;;;7.68;6.15;;;;;;;12.72;60.36;99302.06;5008395;28;20139;-91
2022/04/17 02:04:23;;;;;;;7.90;5.95;;;;;;;12.69;60.57;99297.25;5024704;28;20021;-91
2022/04/17 02:06:50;;;;;;;9.88;6.40;;;;;;;12.58;60.59;99283.03;5024327;28;20032;-91
2022/04/17 02:09:17;;;;;;;10.68;5.68;;;;;;;12.45;61.05;99276.41;5007890;28;20414;-90
2022/04/17 02:11:45;;;;;;;13.85;5.93;;;;;;;12.53;61.25;99293.88;5024245;28;20037;-91
2022/04/17 02:14:12;;;;;;;8.15;5.82;;;;;;;12.54;61.18;99287.38;5041656;28;20546;-91
2022/04/17 02:16:38;;;;;;;7.35;5.25;;;;;;;12.54;61.88;99304.41;5025294;28;20028;-90
2022/04/17 02:19:03;;;;;;;8.65;4.90;;;;;;;12.41;62.49;99304.22;5023653;28;20119;-91
2022/04/17 02:21:31;;;;;;;6.07;4.68;;;;;;;12.54;61.87;99296.28;5024877;28;20036;-90
2022/04/17 02:23:59;;;;;;;8.18;4.75;;;;;;;12.41;62.70;99291.56;5024452;28;20025;-90
2022/04/17 02:26:25;;;;;;;6.18;4.82;;;;;;;12.44;62.26;99284.78;5041552;28;20025;-90
2022/04/17 02:28:50;;;;;;;7.10;4.45;;;;;;;12.27;62.97;99293.28;5022959;28;20052;-90
2022/04/17 02:31:17;;;;;;;11.40;5.32;;;;;;;12.25;62.99;99274.66;5023975;28;20637;-91
2022/04/17 02:33:44;;;;;;;7.78;4.85;;;;;;;12.50;62.15;99281.75;5024225;28;20036;-91
2022/04/17 02:36:12;;;;;;;12.98;5.43;;;;;;;12.50;62.73;99289.84;5058255;28;20020;-91
2022/04/17 02:38:40;;;;;;;8.15;4.78;;;;;;;12.44;62.36;99271.28;5007472;28;20032;-88
2022/04/17 02:41:05;;;;;;;7.97;4.60;;;;;;;12.45;62.80;99281.81;5022962;28;20037;-89
2022/04/17 02:43:32;;;;;;;7.55;5.05;;;;;;;12.44;62.70;99287.47;5039136;28;20036;-88
2022/04/17 02:45:57;;;;;;;6.30;4.88;;;;;;;12.42;62.97;99284.25;5023271;28;20044;-86
2022/04/17 02:48:23;;;;;;;5.78;4.50;;;;;;;12.26;63.33;99286.25;5007139;28;20506;-88
2022/04/17 02:50:49;;;;;;;7.97;4.82;;;;;;;12.30;63.57;99282.69;5022262;28;20045;-88
2022/04/17 02:53:16;;;;;;;10.98;5.05;;;;;;;12.20;64.43;99281.97;5040052;28;20097;-87
2022/04/17 02:55:42;;;;;;;11.77;5.65;;;;;;;12.03;66.54;99285.88;5040646;28;20100;-88
2022/04/17 02:58:10;;;;;;;13.63;5.80;;;;;;;12.10;67.99;99285.56;5006660;28;20043;-88
2022/04/17 03:05:36;;;;;;;6.57;5.13;;;;;;;12.11;68.31;99293.38;5022699;28;20037;-88
2022/04/17 03:06:10;;;;;;;9.15;5.60;;;;;;;12.02;67.39;99278.06;5027819;28;20086;-87
2022/04/17 03:08:38;;;;;;;9.25;5.88;;;;;;;11.90;67.87;99270.31;5039485;28;20112;-88
2022/04/17 03:11:06;;;;;;;10.25;5.43;;;;;;;11.91;68.21;99278.13;5024233;28;20025;-87
2022/04/17 03:13:32;;;;;;;9.15;5.90;;;;;;;11.85;68.66;99273.81;5057691;28;20048;-88
2022/04/17 03:15:59;;;;;;;15.20;5.32;;;;;;;11.87;68.82;99284.31;5022342;28;20033;-87
2022/04/17 03:18:24;;;;;;;7.38;5.68;;;;;;;11.72;69.87;99298.69;5022609;28;20032;-88
2022/04/17 03:20:51;;;;;;;13.75;5.75;;;;;;;11.53;71.06;99301.22;5023411;28;20033;-88
2022/04/17 03:23:17;;;;;;;10.70;6.00;;;;;;;11.31;71.16;99301.59;5022216;28;20576;-88
2022/04/17 03:25:44;;;;;;;8.25;6.18;;;;;;;11.13;70.63;99300.28;5022818;28;20029;-87
2022/04/17 03:28:10;;;;;;;7.60;5.57;;;;;;;10.92;71.17;99303.03;5021967;28;20056;-88
2022/04/17 03:30:36;;;;;;;8.98;5.93;;;;;;;10.67;72.01;99300.38;5022746;28;20036;-88
2022/04/17 03:33:02;;;;;;;11.32;5.93;;;;;;;10.68;72.19;99304.69;5023142;28;20025;-88
2022/04/17 03:35:28;;;;;;;8.35;6.15;;;;;;;10.65;72.47;99313.31;5022371;28;20071;-89
2022/04/17 03:37:55;;;;;;;6.38;5.38;;;;;;;10.51;72.36;99313.84;5005419;28;20403;-88
2022/04/17 03:40:21;;;;;;;8.35;6.20;;;;;;;10.26;72.32;99317.28;5038988;28;20183;-87
2022/04/17 03:42:47;;;;;;;9.10;6.22;;;;;;;10.32;72.36;99326.22;5039194;28;20029;-86
2022/04/17 03:45:16;;;;;;;13.75;6.30;;;;;;;10.16;71.05;99301.13;5005735;28;20037;-87
2022/04/17 03:47:44;;;;;;;9.70;6.38;;;;;;;9.88;72.63;99314.00;5022537;28;20104;-88
2022/04/17 03:50:12;;;;;;;14.70;6.32;;;;;;;9.66;72.77;99310.72;5021766;28;20605;-88
2022/04/17 03:52:50;;;;;;;10.95;5.82;;;;;;;9.64;73.37;99319.03;5040182;28;20025;-89
2022/04/17 03:55:16;;;;;;;19.60;6.82;;;;;;;9.53;73.53;99340.78;5023271;28;20021;-89
2022/04/17 03:57:42;;;;;;;13.45;6.22;;;;;;;9.35;73.00;99331.28;5021798;28;20032;-86
2022/04/17 04:00:11;;;;;;;10.27;6.55;;;;;;;9.29;72.72;99328.53;5021110;28;20045;-89
2022/04/17 04:02:39;;;;;;;11.90;7.03;;;;;;;9.23;73.62;99339.53;5037216;28;20171;-88
2022/04/17 04:05:08;;;;;;;20.90;6.15;;;;;;;8.98;72.59;99351.72;5022412;28;20028;-89
2022/04/17 04:07:36;;;;;;;12.80;5.93;;;;;;;9.06;72.83;99345.06;5038197;28;20040;-88
2022/04/17 04:10:03;;;;;;;8.88;5.70;;;;;;;8.94;73.13;99352.50;5022032;28;20025;-88
2022/04/17 04:12:29;;;;;;;10.48;6.63;;;;;;;8.73;73.03;99338.13;5021156;28;20478;-88
2022/04/17 04:14:55;;;;;;;14.00;6.57;;;;;;;8.73;73.67;99368.47;5020995;28;20033;-89
2022/04/17 04:17:22;;;;;;;16.17;6.65;;;;;;;8.71;73.46;99346.44;5038483;28;20406;-88
2022/04/17 04:19:48;;;;;;;9.52;6.53;;;;;;;8.57;73.68;99350.63;5005220;28;20036;-88
2022/04/17 04:22:15;;;;;;;10.40;6.30;;;;;;;8.41;73.89;99337.06;5055225;28;20028;-89
2022/04/17 04:24:41;;;;;;;13.02;6.80;;;;;;;8.52;73.12;99329.13;5038667;28;20028;-88
2022/04/17 04:29:50;;;;;;;10.15;7.20;;;;;;;8.40;74.02;99334.59;5056153;28;20179;-87
2022/04/17 04:32:20;;;;;;;14.63;6.65;;;;;;;8.33;73.62;99323.28;5004625;28;20534;-93
2022/04/17 04:34:46;;;;;;;10.45;7.13;;;;;;;8.50;74.10;99340.09;5037906;28;20127;-88
2022/04/17 04:37:11;;;;;;;11.52;6.80;;;;;;;8.39;73.38;99330.31;5020890;28;20458;-88
2022/04/17 04:39:38;;;;;;;11.95;7.25;;;;;;;8.36;76.02;99339.66;5005398;28;20029;-88
2022/04/17 04:42:03;;;;;;;10.70;6.55;;;;;;;8.39;73.90;99336.50;5005038;28;20111;-88
2022/04/17 04:44:29;;;;;;;13.18;6.68;;;;;;;8.33;74.16;99342.88;5005924;28;20029;-88
2022/04/17 04:46:55;;;;;;;13.70;6.57;;;;;;;8.27;73.87;99342.00;5036957;28;20041;-88
2022/04/17 04:49:31;;;;;;;11.27;6.90;;;;;;;8.20;74.23;99356.72;5005711;28;20025;-87
2022/04/17 04:52:03;;;;;;;7.38;6.07;;;;;;;8.15;73.07;99341.34;5022745;28;20033;-87
2022/04/17 04:54:29;;;;;;;8.10;6.70;;;;;;;8.17;74.15;99343.78;5006034;28;20021;-91
2022/04/17 04:56:55;;;;;;;7.32;6.00;;;;;;;8.12;74.07;99339.19;5038756;28;20025;-87
2022/04/17 04:59:22;;;;;;;9.10;6.63;;;;;;;8.05;74.93;99346.59;5004446;28;20061;-88
2022/04/17 05:01:49;;;;;;;9.52;6.20;;;;;;;8.08;73.40;99351.47;5005290;28;20490;-88
2022/04/17 05:04:17;;;;;;;8.65;6.95;;;;;;;8.10;74.25;99352.03;5037683;28;20039;-87
2022/04/17 05:06:44;;;;;;;8.25;5.97;;;;;;;8.19;73.56;99345.16;5005241;28;20090;-88
2022/04/17 05:09:11;;;;;;;11.10;6.50;;;;;;;7.86;74.36;99338.94;5004386;28;20021;-88
2022/04/17 05:11:38;;;;;;;9.85;6.65;;;;;;;8.02;74.90;99339.09;5021570;28;20027;-88
2022/04/17 05:14:04;;;;;;;7.53;6.22;;;;;;;8.02;74.78;99344.44;5021282;28;20033;-87
2022/04/17 05:16:29;;;;;;;8.07;5.70;;;;;;;8.01;73.41;99338.28;5004958;28;20036;-88
2022/04/17 05:19:19;;;;;;;7.30;5.45;;;;;;;8.22;73.69;99338.50;5036471;28;20037;-88
2022/04/17 05:21:41;;;;;;;8.43;6.32;;;;;;;8.10;73.14;99334.06;5038663;28;20036;-87
2022/04/17 05:24:07;;;;;;;9.75;6.07;;;;;;;8.06;73.84;99341.00;5037207;28;20043;-88
2022/04/17 05:26:32;;;;;;;9.60;5.05;;;;;;;8.00;73.38;99347.38;5021003;28;20028;-87
2022/04/17 05:29:02;;;;;;;7.60;5.10;;;;;;;7.84;73.43;99335.69;5004326;28;20032;-87
2022/04/17 05:31:27;;;;;;;6.65;4.97;;;;;;;7.88;73.90;99362.78;5005228;28;20029;-86
2022/04/17 05:33:55;;;;;;;8.88;5.25;;;;;;;7.91;73.86;99354.25;5003203;28;20044;-87
2022/04/17 05:36:21;;;;;;;7.72;5.22;;;;;;;7.67;74.06;99351.81;5055182;28;20027;-88
2022/04/17 05:38:47;;;;;;;7.00;5.57;;;;;;;7.76;74.60;99373.66;5036425;28;20127;-88
2022/04/17 05:41:13;;;;;;;6.45;4.85;;;;;;;7.82;75.05;99364.63;5037516;28;20041;-87
2022/04/17 05:43:39;;;;;;;6.30;4.47;;;;;;;7.69;74.00;99367.66;5019984;28;20025;-87
2022/04/17 05:46:05;;;;;;;9.40;4.85;;;;;;;7.85;74.24;99372.16;5003225;28;20035;-88
2022/04/17 05:48:30;;;;;;;8.90;5.38;;;;;;;7.93;75.15;99383.47;5020633;28;20025;-89
2022/04/17 05:50:56;;;;;;;5.35;4.40;;;;;;;7.93;74.74;99380.78;5003985;28;20013;-88
2022/04/17 05:53:21;;;;;;;4.57;3.85;;;;;;;8.01;73.79;99378.50;5017412;28;20105;-88
2022/04/17 05:55:47;;;;;;;6.72;4.13;;;;;;;7.81;74.05;99352.25;5003535;28;20036;-88
2022/04/17 05:58:13;;;;;;;5.88;4.18;;;;;;;7.91;74.66;99364.97;5002885;28;20039;-88
2022/04/17 06:00:42;;;;;;;5.50;4.10;;;;;;;7.83;75.10;99366.22;5020122;28;20071;-88
2022/04/17 06:03:08;;;;;;;5.20;3.60;;;;;;;7.85;74.50;99371.34;5036213;28;20028;-88
2022/04/17 06:05:34;;;;;;;6.43;3.67;;;;;;;7.76;75.52;99362.94;5003673;28;20115;-88
2022/04/17 06:07:59;;;;;;;8.23;4.18;;;;;;;7.74;75.14;99365.06;5020598;28;20403;-88
2022/04/17 06:10:25;;;;;;;7.13;4.50;;;;;;;7.51;75.15;99360.72;5004116;28;20036;-88
2022/04/17 06:12:52;;;;;;;7.00;4.95;;;;;;;7.59;75.23;99360.28;5018110;28;20490;-89
2022/04/17 06:15:19;;;;;;;5.68;4.15;;;;;;;7.44;75.15;99374.31;5005101;28;20067;-88
2022/04/17 06:17:45;;;;;;;8.82;5.32;;;;;;;7.59;74.99;99364.84;5039087;28;20080;-87
2022/04/17 06:20:12;;;;;;;6.38;4.35;;;;;;;7.66;74.61;99357.44;5006907;28;20025;-89
2022/04/17 06:22:38;;;;;;;8.35;4.80;;;;;;;7.59;74.91;99371.00;5023559;28;20032;-87
2022/04/17 06:25:05;;;;;;;6.88;4.53;;;;;;;7.52;74.99;99362.38;5006670;28;20056;-88
2022/04/17 06:27:39;;;;;;;7.20;4.93;;;;;;;7.57;75.34;99381.16;5006762;28;20032;-87
2022/04/17 06:30:10;;;;;;;6.22;4.28;;;;;;;7.65;75.10;99378.06;5023345;28;20017;-87
2022/04/17 06:32:37;;;;;;;4.72;4.07;;;;;;;7.43;75.32;99377.25;5023536;28;20048;-88
2022/04/17 06:35:03;;;;;;;7.97;4.57;;;;;;;7.39;75.94;99378.81;5007216;28;20031;-87
2022/04/17 06:37:30;;;;;;;5.63;4.07;;;;;;;7.52;74.27;99393.72;5022300;28;20033;-87
2022/04/17 06:40:00;;;;;;;4.80;4.20;;;;;;;7.51;74.20;99394.75;5023315;28;20025;-86
2022/04/17 06:42:26;;;;;;;7.00;4.20;;;;;;;7.18;75.91;99389.22;5040146;28;20028;-89
2022/04/17 06:44:51;;;;;;;5.63;4.15;;;;;;;7.35;76.81;99388.41;5022303;28;20025;-87
2022/04/17 06:47:18;;;;;;;4.75;3.75;;;;;;;7.43;75.45;99379.94;5005724;28;20044;-88
2022/04/17 06:49:44;;;;;;;4.38;3.53;;;;;;;7.33;75.29;99398.53;5006543;28;20045;-88
2022/04/17 06:52:09;;;;;;;8.32;4.53;;;;;;;7.25;76.58;99402.44;5006211;28;20021;-89
2022/04/17 06:54:36;;;;;;;5.20;3.95;;;;;;;7.37;75.19;99408.50;5006064;28;20023;-88
2022/04/17 06:57:02;;;;;;;5.65;3.97;;;;;;;7.01;75.58;99397.25;5038225;28;20029;-87
2022/04/17 06:59:27;;;;;;;5.57;3.80;;;;;;;7.06;75.76;99397.34;5006587;28;20510;-87
2022/04/17 07:01:54;;;;;;;4.50;3.88;;;;;;;7.18;75.38;99412.50;5021743;28;20028;-87
2022/04/17 07:04:20;;;;;;;6.07;4.53;;;;;;;7.27;76.52;99401.13;5006547;28;20041;-87
2022/04/17 07:06:46;;;;;;;5.00;3.80;;;;;;;7.15;76.48;99399.63;5039088;28;20057;-86
2022/04/17 07:09:12;;;;;;;6.55;4.10;;;;;;;7.22;75.17;99397.56;5037924;28;20510;-87
2022/04/17 07:11:38;;;;;;;4.65;3.33;;;;;;;7.08;75.63;99405.94;5022149;28;20450;-87
2022/04/17 07:14:04;;;;;;;5.25;3.45;;;;;;;7.13;75.02;99396.38;5022147;28;20025;-87
2022/04/17 07:16:29;;;;;;;5.82;4.20;;;;;;;7.29;76.12;99403.56;5022179;28;20175;-86
2022/04/17 07:18:55;;;;;;;4.82;3.40;;;;;;;7.04;75.97;99404.81;5022149;28;20024;-87
2022/04/17 07:21:21;;;;;;;4.95;3.63;;;;;;;7.24;76.54;99404.31;5022291;28;20107;-88
2022/04/17 07:23:47;;;;;;;5.13;3.63;;;;;;;7.08;76.34;99397.13;5022186;28;20051;-88
2022/04/17 07:26:16;;;;;;;5.30;3.15;;;;;;;7.06;76.08;99413.41;5006568;28;20028;-90
2022/04/17 07:28:42;;;;;;;4.72;3.72;;;;;;;7.09;75.75;99418.25;5021734;28;20048;-88
2022/04/17 07:31:08;;;;;;;6.32;4.00;;;;;;;7.16;75.65;99402.06;5037579;28;20041;-88
2022/04/17 07:33:33;;;;;;;6.72;4.85;;;;;;;7.32;76.47;99408.44;5020764;28;20044;-89
2022/04/17 07:36:01;;;;;;;6.10;4.28;;;;;;;7.32;76.49;99402.25;5038519;28;20376;-89
2022/04/17 07:38:27;;;;;;;4.57;3.30;;;;;;;7.40;74.46;99408.00;5005322;28;20051;-89
2022/04/17 07:40:54;;;;;;;3.15;2.70;;;;;;;7.35;74.38;99401.78;5021983;28;20040;-91
2022/04/17 07:43:19;;;;;;;3.75;2.85;;;;;;;7.38;74.17;99410.13;5038277;28;20021;-89
2022/04/17 07:45:45;;;;;;;4.03;3.17;;;;;;;7.29;74.59;99409.72;5005312;28;20032;-87
2022/04/17 07:48:12;;;;;;;4.55;2.88;;;;;;;7.24;74.85;99412.34;5004667;28;20102;-87
2022/04/17 07:50:37;;;;;;;3.40;3.00;;;;;;;7.22;75.36;99418.97;5037781;28;20024;-87
2022/04/17 07:53:03;;;;;;;4.13;3.20;;;;;;;7.23;74.92;99428.66;5037671;28;20036;-88
2022/04/17 07:55:29;;;;;;;4.05;3.65;;;;;;;7.20;75.33;99418.41;5021656;28;20020;-88
2022/04/17 07:58:08;;;;;;;3.92;3.20;;;;;;;7.12;74.92;99418.81;5036757;28;20037;-86
2022/04/17 08:00:42;;;;;;;4.40;3.08;;;;;;;7.26;75.24;99428.97;5038894;28;20561;-87
2022/04/17 08:03:10;;;;;;;3.22;2.65;;;;;;;7.16;74.17;99428.84;5023058;28;20025;-87
2022/04/17 08:05:39;;;;;;;3.83;2.97;;;;;;;7.17;74.88;99427.75;5004934;28;20037;-88
2022/04/17 08:08:06;;;;;;;3.10;2.75;;;;;;;7.16;74.99;99436.88;5020735;28;20059;-87
2022/04/17 08:10:33;;;;;;;3.83;2.72;;;;;;;7.11;75.43;99431.41;5037100;28;20111;-89
2022/04/17 08:13:01;;;;;;;4.55;3.08;;;;;;;6.91;74.97;99423.88;5054585;28;20036;-87
2022/04/17 08:15:27;;;;;;;4.50;3.60;;;;;;;7.01;75.53;99421.34;5037644;28;20098;-88
2022/04/17 08:17:56;;;;;;;4.30;2.90;;;;;;;7.22;74.36;99402.91;5005999;28;20033;-88
2022/04/17 08:20:23;;;;;;;4.63;3.20;;;;;;;7.23;74.58;99401.88;5037836;28;20087;-87
2022/04/17 08:22:48;;;;;;;5.28;3.35;;;;;;;7.25;73.41;99387.19;5021013;28;20096;-86
2022/04/17 08:25:14;;;;;;;4.18;3.35;;;;;;;7.06;75.44;99410.72;5037161;28;20033;-86
2022/04/17 08:27:46;;;;;;;4.05;3.28;;;;;;;7.15;74.42;99400.41;5023829;28;20103;-88
2022/04/17 08:30:13;;;;;;;3.05;2.70;;;;;;;7.08;74.62;99400.59;5038154;28;20031;-88
2022/04/17 08:32:40;;;;;;;3.05;2.50;;;;;;;7.17;73.99;99414.38;5020671;28;20391;-87
2022/04/17 08:35:08;;;;;;;4.47;3.05;;;;;;;7.14;74.28;99390.78;5038015;28;20029;-88
2022/04/17 08:37:35;;;;;;;3.90;2.95;;;;;;;7.26;74.30;99398.69;5038234;28;20033;-89
2022/04/17 08:40:02;;;;;;;3.45;2.72;;;;;;;7.20;73.37;99403.19;5021683;28;20479;-88
2022/04/17 08:42:30;;;;;;;3.92;2.80;;;;;;;7.25;73.20;99378.34;5004638;28;20052;-87
2022/04/17 08:44:56;;;;;;;3.65;3.05;;;;;;;7.31;73.70;99382.72;5039281;28;20512;-86
2022/04/17 08:47:23;;;;;;;4.60;3.20;;;;;;;7.21;73.15;99378.00;5020779;28;20029;-88
2022/04/17 08:49:53;;;;;;;4.28;2.90;;;;;;;7.26;73.93;99387.97;5020754;28;20051;-88
2022/04/17 08:52:18;;;;;;;4.75;3.22;;;;;;;7.35;73.89;99399.91;5036500;28;20043;-90
2022/04/17 08:54:46;;;;;;;4.68;2.90;;;;;;;7.20;73.85;99403.19;5004937;28;20442;-87
2022/04/17 08:57:12;;;;;;;3.55;3.03;;;;;;;7.34;74.44;99387.56;5003309;28;20521;-88
2022/04/17 08:59:38;;;;;;;4.15;3.40;;;;;;;7.51;73.40;99395.56;5037879;28;20045;-89
2022/04/17 09:02:12;;;;;;;4.65;3.70;;;;;;;7.49;74.62;99398.50;5006516;28;20053;-84
2022/04/17 09:04:44;;;;;;;6.13;3.40;;;;;;;7.46;72.85;99390.94;5039212;28;20029;-88
2022/04/17 09:07:10;;;;;;;;;;;;;;;7.51;72.60;99410.81;5021307;28;20024;-88
2022/04/17 09:09:41;;;;;;;4.05;2.85;;;;;;;7.41;72.01;99417.69;5035584;28;19908;-89
2022/04/17 09:12:07;;;;;;;3.03;2.67;;;;;;;7.27;71.43;99416.41;5036665;28;20032;-88
2022/04/17 09:14:40;;;;;;;2.75;2.25;;;;;;;7.07;72.51;99400.81;5037586;28;20060;-88
2022/04/17 09:17:12;;;;;;;3.92;2.97;;;;;;;7.11;73.57;99404.63;5021493;28;20415;-88
2022/04/17 09:19:54;;;;;;;3.42;2.72;;;;;;;7.11;72.69;99380.53;4961347;28;20038;-88
2022/04/17 09:22:20;;;;;;;4.68;2.60;;;;;;;7.32;72.24;99405.75;4958161;28;20039;-88
2022/04/17 09:24:46;;;;;;;3.05;2.58;;;;;;;7.25;71.69;99411.28;4957551;28;20038;-90
2022/04/17 09:27:11;;;;;;;4.50;2.97;;;;;;;7.16;72.57;99398.53;4960727;28;20030;-87
2022/04/17 09:29:37;;;;;;;3.72;2.30;;;;;;;7.11;72.89;99403.84;4960107;28;20090;-88
2022/04/17 09:32:10;;;;;;;4.72;2.60;;;;;;;7.17;71.29;99397.50;4942133;28;20163;-86
2022/04/17 09:34:57;;;;;;;3.83;3.08;;;;;;;7.18;72.58;99385.72;4958323;28;20079;-87
2022/04/17 09:37:25;;;;;;;4.95;2.83;;;;;;;7.28;71.53;99397.41;4957883;28;20062;-87
2022/04/17 09:39:54;;;;;;;4.68;3.13;;;;;;;7.28;73.87;99397.41;4956326;28;20038;-88
2022/04/17 09:42:25;;;;;;;6.15;2.88;;;;;;;7.26;72.63;99406.72;4958351;28;20052;-92
2022/04/17 09:44:54;;;;;;;3.70;3.03;;;;;;;7.20;73.02;99380.94;4961789;28;20042;-91
2022/04/17 09:47:40;;;;;;;6.32;2.80;;;;;;;7.22;72.86;99395.72;4975303;28;20039;-90
2022/04/17 09:50:08;;;;;;;4.82;3.00;;;;;;;7.05;74.08;99385.00;4950469;28;20034;-90
2022/04/17 09:52:40;;;;;;;2.92;2.50;;;;;;;7.13;71.94;99397.16;4966858;28;20049;-89
2022/04/17 09:55:07;;;;;;;3.85;3.13;;;;;;;7.03;73.89;99394.34;4984983;28;20029;-91
2022/04/17 09:57:43;;;;;;;3.50;2.60;;;;;;;7.26;73.84;99387.97;4985994;28;20037;-91
2022/04/17 10:00:13;;;;;;;3.30;2.83;;;;;;;7.42;73.85;99395.19;4969852;28;20042;-90
2022/04/17 10:02:40;;;;;;;3.75;2.70;;;;;;;7.24;72.22;99374.84;4966003;28;20038;-91
2022/04/17 10:05:07;;;;;;;2.63;2.30;;;;;;;7.27;73.10;99390.41;4949923;28;20026;-90
2022/04/17 10:07:33;;;;;;;3.53;2.55;;;;;;;7.12;73.55;99384.84;4948428;28;20049;-89
2022/04/17 10:10:00;;;;;;;4.22;3.42;;;;;;;7.18;74.34;99375.00;4965413;28;20022;-87
2022/04/17 10:12:26;;;;;;;4.75;3.33;;;;;;;7.18;74.21;99365.13;4964190;28;20030;-87
2022/04/17 10:14:53;;;;;;;5.68;3.85;;;;;;;7.30;74.65;99370.38;4980054;28;20065;-89
2022/04/17 10:17:20;;;;;;;4.47;3.22;;;;;;;7.39;74.84;99362.75;4947770;28;20173;-89
2022/04/17 10:19:51;;;;;;;4.45;3.47;;;;;;;7.45;72.34;99357.19;5020715;28;20041;-89
2022/04/17 10:22:20;;;;;;;4.35;3.00;;;;;;;7.41;74.10;99364.09;5004658;28;20633;-90
2022/04/17 10:24:52;;;;;;;4.70;2.15;;;;;;;7.26;72.44;99355.84;4989486;28;20049;-88
2022/04/17 10:27:21;;;;;;;3.08;2.20;;;;;;;7.26;73.51;99342.44;4990430;28;20037;-91
2022/04/17 10:30:06;;;;;;;2.60;1.90;;;;;;;7.45;71.32;99362.56;5020430;28;20067;-91
2022/04/17 10:33:09;;;;;;;2.05;1.50;;;;;;;7.68;70.98;99358.81;5007257;28;20447;-92
2022/04/17 10:36:06;;;;;;;2.83;1.80;;;;;;;7.21;70.84;99348.56;5021799;28;20547;-91
2022/04/17 10:38:55;;;;;;;3.10;2.10;;;;;;;7.35;72.30;99329.47;5039651;28;20068;-91
2022/04/17 10:41:21;;;;;;;2.30;1.70;;;;;;;7.43;71.53;99329.84;5039172;28;20036;-91
2022/04/17 10:43:46;;;;;;;2.15;1.58;;;;;;;7.34;70.10;99333.19;4988916;28;20033;-88
2022/04/17 10:46:17;;;;;;;2.70;1.95;;;;;;;7.48;71.57;99337.13;5020479;28;20472;-90
2022/04/17 10:48:43;;;;;;;3.25;2.35;;;;;;;7.43;71.67;99318.31;5020635;28;20041;-90
2022/04/17 10:51:15;;;;;;;5.40;1.80;;;;;;;7.56;71.35;99323.28;5004532;28;20025;-90
2022/04/17 10:54:04;;;;;;;2.67;2.00;;;;;;;7.34;70.77;99327.84;5020427;28;20022;-92
2022/04/17 10:56:35;;;;;;;2.88;1.95;;;;;;;7.40;71.05;99327.66;5004136;28;20464;-90
2022/04/17 10:59:24;;;;;;;3.13;2.05;;;;;;;7.38;70.90;99337.00;5027363;28;20477;-91
2022/04/17 11:01:51;;;;;;;3.22;2.05;;;;;;;7.45;72.17;99342.97;5041880;28;20052;-91
2022/04/17 11:04:40;;;;;;;3.33;2.40;;;;;;;7.43;70.68;99345.91;5022088;28;20064;-91
2022/04/17 11:07:06;;;;;;;4.15;2.70;;;;;;;7.47;69.63;99352.41;5020986;28;20107;-91
2022/04/17 11:09:34;;;;;;;8.00;2.90;;;;;;;7.14;70.66;99352.47;5041103;28;20029;-91
2022/04/17 11:12:18;;;;;;;3.20;2.70;;;;;;;7.02;70.84;99368.63;5038693;28;20047;-92
2022/04/17 11:15:05;;;;;;;3.60;2.60;;;;;;;7.13;70.63;99361.56;5039990;28;20033;-92
2022/04/17 11:17:32;;;;;;;4.07;3.05;;;;;;;6.87;72.55;99358.50;5039987;28;20104;-90
2022/04/17 11:19:58;;;;;;;5.88;2.75;;;;;;;6.99;72.02;99348.53;5023554;28;20059;-90
2022/04/17 11:22:34;;;;;;;4.50;3.13;;;;;;;6.91;71.24;99351.63;5006222;28;20502;-90
2022/04/17 11:25:02;;;;;;;4.40;3.10;;;;;;;7.11;71.20;99358.31;5039610;28;20032;-90
2022/04/17 11:27:41;;;;;;;3.95;2.80;;;;;;;7.04;71.97;99343.25;5040179;28;20095;-91
2022/04/17 11:30:10;;;;;;;3.22;2.63;;;;;;;7.04;72.24;99356.63;5023608;28;20112;-90
2022/04/17 11:32:35;;;;;;;4.22;3.15;;;;;;;7.07;71.96;99369.50;5023865;28;20029;-90
2022/04/17 11:35:02;;;;;;;4.18;3.03;;;;;;;6.94;71.02;99367.19;5040167;28;20029;-91
2022/04/17 11:37:30;;;;;;;4.22;3.00;;;;;;;6.82;69.52;99367.25;5038528;28;20170;-91
2022/04/17 11:40:08;;;;;;;4.35;2.65;;;;;;;6.78;72.49;99376.81;5023846;28;20032;-92
2022/04/17 11:42:41;;;;;;;4.82;3.05;;;;;;;6.74;73.10;99372.22;5039727;28;20035;-91
2022/04/17 11:45:09;;;;;;;4.57;3.30;;;;;;;6.70;72.49;99366.53;5024502;28;20475;-91
2022/04/17 11:47:39;;;;;;;4.15;3.35;;;;;;;6.56;72.62;99358.03;5026512;28;20036;-91
2022/04/17 11:50:11;;;;;;;3.80;2.83;;;;;;;6.65;72.19;99351.19;5023038;28;20021;-89